»·PEaware :: N716TH KBUR-KLAS

N716TH :: KBUR-KLAS

FLIGHT INFORMATION

Flight Status: Arrived
Operator: Privately registered:
United States
More flights under this callsign
Pilot: Danny R. (17997)
Aircraft: CESSNA 172 SKYHAWK
(C172)
More flights by this aircraft type
Origin: KBUR Bob Hope-Burbank
United States
Destination: KLAS McCarran Intl
United States
More flights between these airports :: More routes between these airports
Route: +VNY3 DAG CRESO4
File this flight plan on PilotEdge
Remarks: I-5
Altitude:
(Current/Filed)
11,000ft
Speed:
(Current/Filed)
100kts
Departed: 11-Apr-18 08:48 AM
Arrived: 11-Apr-18 10:44 AM
Distance/Time
Traveled:
193nm/1:56
Distance/Time
To Go:
Arrived

Flight Plot

Page will automatically refresh every two minutes.

Flight plan parsing failed; only flown route is shown


Map Options




Map Legend


Flown Route
Filed Route
Departure Airport
Arrival Airport
Navaid (VOR, NDB)
Fix

Horizontal Profiles

Position Reports

Time Latitude Longitude Heading Altitude Ground
Speed
11-Apr-18 08:15 34.200204 -118.358745 263 781ft 0kts
11-Apr-18 08:16 34.200204 -118.358745 263 781ft 0kts
11-Apr-18 08:17 34.200204 -118.358745 263 781ft 0kts
11-Apr-18 08:18 34.200204 -118.358745 263 781ft 0kts
11-Apr-18 08:19 34.200204 -118.358745 263 781ft 0kts
11-Apr-18 08:20 34.200204 -118.358745 263 781ft 0kts
11-Apr-18 08:21 34.200204 -118.358745 263 781ft 0kts
11-Apr-18 08:22 34.200204 -118.358745 263 781ft 0kts
11-Apr-18 08:23 34.200204 -118.358745 263 781ft 0kts
11-Apr-18 08:24 34.200204 -118.358745 263 781ft 0kts
11-Apr-18 08:25 34.200204 -118.358745 263 781ft 0kts
11-Apr-18 08:26 34.200204 -118.358745 263 781ft 0kts
11-Apr-18 08:27 34.200204 -118.358745 263 781ft 0kts
11-Apr-18 08:28 34.200204 -118.358745 263 781ft 0kts
11-Apr-18 08:29 34.200204 -118.358745 263 781ft 0kts
11-Apr-18 08:30 34.200204 -118.358745 263 781ft 0kts
11-Apr-18 08:31 34.200204 -118.358745 263 781ft 0kts
11-Apr-18 08:32 34.200204 -118.358745 263 781ft 0kts
11-Apr-18 08:33 34.200204 -118.358745 263 781ft 0kts
11-Apr-18 08:34 34.200204 -118.358745 263 781ft 0kts
11-Apr-18 08:35 34.200204 -118.358745 263 781ft 0kts
11-Apr-18 08:36 34.200204 -118.358745 263 781ft 0kts
11-Apr-18 08:37 34.200204 -118.358745 263 781ft 0kts
11-Apr-18 08:38 34.199684 -118.358462 112 781ft 9kts
11-Apr-18 08:39 34.204102 -118.359342 346 781ft 22kts
11-Apr-18 08:40 34.210235 -118.361036 349 781ft 19kts
11-Apr-18 08:41 34.211865 -118.361465 21 781ft 0kts
11-Apr-18 08:42 34.211865 -118.361465 21 781ft 0kts
11-Apr-18 08:43 34.211865 -118.361465 21 781ft 0kts
11-Apr-18 08:44 34.211865 -118.361465 21 781ft 0kts
11-Apr-18 08:45 34.212085 -118.361341 36 781ft 0kts
11-Apr-18 08:46 34.211624 -118.360278 165 781ft 26kts
11-Apr-18 08:47 34.194118 -118.356061 167 1330ft 72kts
11-Apr-18 08:48 34.178463 -118.372196 229 2042ft 79kts
11-Apr-18 08:49 34.165165 -118.393107 209 2747ft 83kts
11-Apr-18 08:50 34.150087 -118.412534 224 3458ft 82kts
11-Apr-18 08:51 34.157655 -118.429856 351 4115ft 79kts
11-Apr-18 08:52 34.179033 -118.435693 351 4787ft 79kts
11-Apr-18 08:53 34.200068 -118.441487 351 5394ft 78kts
11-Apr-18 08:54 34.221980 -118.445719 351 5953ft 81kts
11-Apr-18 08:55 34.244250 -118.449729 351 6514ft 81kts
11-Apr-18 08:56 34.266588 -118.453749 351 7067ft 81kts
11-Apr-18 08:57 34.288876 -118.457777 351 7609ft 81kts
11-Apr-18 08:58 34.310105 -118.454832 351 8150ft 79kts
11-Apr-18 08:59 34.332014 -118.458807 351 8670ft 79kts
11-Apr-18 09:00 34.353088 -118.458612 48 9186ft 78kts
11-Apr-18 09:01 34.366235 -118.439316 49 9728ft 70kts
11-Apr-18 09:02 34.381226 -118.422876 27 10240ft 68kts
11-Apr-18 09:03 34.396258 -118.402054 38 10515ft 99kts
11-Apr-18 09:04 34.414505 -118.375857 41 10910ft 104kts
11-Apr-18 09:05 34.435561 -118.345623 44 11029ft 131kts
11-Apr-18 09:06 34.459941 -118.310620 44 11116ft 137kts
11-Apr-18 09:07 34.486670 -118.284513 7 11124ft 115kts
11-Apr-18 09:08 34.510907 -118.259478 56 11094ft 119kts
11-Apr-18 09:09 34.530578 -118.227764 56 11064ft 119kts
11-Apr-18 09:10 34.550875 -118.194934 55 11052ft 122kts
11-Apr-18 09:11 34.571120 -118.160780 48 11023ft 128kts
11-Apr-18 09:12 34.592672 -118.125882 47 10994ft 130kts
11-Apr-18 09:13 34.614456 -118.090965 47 10967ft 130kts
11-Apr-18 09:14 34.633328 -118.053945 85 10931ft 132kts
11-Apr-18 09:15 34.637368 -118.009481 85 10909ft 132kts
11-Apr-18 09:16 34.642194 -117.965226 84 10886ft 133kts
11-Apr-18 09:17 34.647089 -117.920557 84 10862ft 134kts
11-Apr-18 09:18 34.651992 -117.875408 84 10832ft 135kts
11-Apr-18 09:19 34.656902 -117.830244 84 10807ft 134kts
11-Apr-18 09:20 34.661581 -117.787494 85 10975ft 126kts
11-Apr-18 09:21 34.668507 -117.744410 69 10984ft 132kts
11-Apr-18 09:22 34.679993 -117.701700 72 10983ft 133kts
11-Apr-18 09:23 34.691092 -117.658535 72 10982ft 134kts
11-Apr-18 09:24 34.702204 -117.615186 72 10978ft 134kts
11-Apr-18 09:25 34.712645 -117.574300 77 10988ft 120kts
11-Apr-18 09:26 34.722156 -117.537096 77 10977ft 111kts
11-Apr-18 09:27 34.731188 -117.501804 78 10972ft 108kts
11-Apr-18 09:28 34.740764 -117.464289 72 10964ft 125kts
11-Apr-18 09:29 34.751521 -117.422053 72 10963ft 133kts
11-Apr-18 09:30 34.762506 -117.378819 72 10958ft 134kts
11-Apr-18 09:31 34.773368 -117.335968 73 10987ft 131kts
11-Apr-18 09:32 34.784188 -117.293276 73 10989ft 132kts
11-Apr-18 09:33 34.795013 -117.250475 73 10989ft 132kts
11-Apr-18 09:34 34.805855 -117.207515 73 10963ft 134kts
11-Apr-18 09:35 34.816745 -117.164277 73 10955ft 133kts
11-Apr-18 09:36 34.827501 -117.121544 73 10983ft 132kts
11-Apr-18 09:37 34.838320 -117.078526 73 10983ft 133kts
11-Apr-18 09:38 34.849122 -117.035374 73 10977ft 133kts
11-Apr-18 09:39 34.859966 -116.992072 73 10977ft 133kts
11-Apr-18 09:40 34.870785 -116.948850 73 10975ft 133kts
11-Apr-18 09:41 34.881565 -116.905576 73 10977ft 133kts
11-Apr-18 09:42 34.892386 -116.862137 73 10973ft 134kts
11-Apr-18 09:43 34.903213 -116.818663 73 10970ft 134kts
11-Apr-18 09:44 34.913971 -116.775274 73 10996ft 132kts
11-Apr-18 09:45 34.924587 -116.732485 73 11039ft 132kts
11-Apr-18 09:46 34.935205 -116.689622 73 11085ft 132kts
11-Apr-18 09:47 34.945811 -116.646605 73 11123ft 132kts
11-Apr-18 09:48 34.956442 -116.603510 73 11163ft 132kts
11-Apr-18 09:49 34.973680 -116.568552 91 11168ft 132kts
11-Apr-18 09:50 34.984522 -116.524415 63 11043ft 144kts
11-Apr-18 09:51 35.001621 -116.480218 62 10973ft 141kts
11-Apr-18 09:52 35.018110 -116.438004 62 10982ft 136kts
11-Apr-18 09:53 35.034435 -116.396128 62 10975ft 136kts
11-Apr-18 09:54 35.057299 -116.360704 58 10951ft 136kts
11-Apr-18 09:55 35.073590 -116.320283 66 10998ft 130kts
11-Apr-18 09:56 35.089244 -116.279987 63 10989ft 132kts
11-Apr-18 09:57 35.104900 -116.239553 63 11004ft 132kts
11-Apr-18 09:58 35.120617 -116.198960 63 11006ft 132kts
11-Apr-18 09:59 35.138750 -116.159954 56 11005ft 132kts
11-Apr-18 10:00 35.150594 -116.117248 75 11000ft 133kts
11-Apr-18 10:01 35.166880 -116.077441 58 11004ft 132kts
11-Apr-18 10:02 35.183160 -116.036841 62 11002ft 133kts
11-Apr-18 10:03 35.198966 -115.995796 63 10999ft 133kts
11-Apr-18 10:04 35.214732 -115.954704 63 10998ft 133kts
11-Apr-18 10:05 35.230514 -115.913578 63 10996ft 133kts
11-Apr-18 10:06 35.246313 -115.872369 63 10994ft 134kts
11-Apr-18 10:07 35.265725 -115.834589 40 10997ft 130kts
11-Apr-18 10:08 35.291005 -115.803702 40 10989ft 127kts
11-Apr-18 10:09 35.317878 -115.774396 42 10877ft 130kts
11-Apr-18 10:10 35.342408 -115.741721 51 10784ft 130kts
11-Apr-18 10:11 35.367645 -115.709841 47 10688ft 131kts
11-Apr-18 10:12 35.391477 -115.675729 52 10583ft 132kts
11-Apr-18 10:13 35.414893 -115.640982 52 10472ft 133kts
11-Apr-18 10:14 35.438509 -115.605874 52 10363ft 133kts
11-Apr-18 10:15 35.462192 -115.570624 52 10250ft 134kts
11-Apr-18 10:16 35.485906 -115.535288 52 10134ft 134kts
11-Apr-18 10:17 35.512981 -115.505245 18 10038ft 132kts
11-Apr-18 10:18 35.540322 -115.476636 50 10021ft 129kts
11-Apr-18 10:19 35.564169 -115.441364 52 9776ft 141kts
11-Apr-18 10:20 35.589170 -115.403978 52 9489ft 141kts
11-Apr-18 10:21 35.614132 -115.366634 51 9196ft 141kts
11-Apr-18 10:22 35.645672 -115.339390 31 8964ft 138kts
11-Apr-18 10:23 35.678031 -115.313999 31 8788ft 138kts
11-Apr-18 10:24 35.708932 -115.289706 31 8440ft 125kts
11-Apr-18 10:25 35.738001 -115.266865 31 8023ft 127kts
11-Apr-18 10:26 35.768523 -115.242872 31 7660ft 133kts
11-Apr-18 10:27 35.799823 -115.218250 31 7314ft 133kts
11-Apr-18 10:28 35.831477 -115.193322 31 7049ft 136kts
11-Apr-18 10:29 35.863359 -115.168216 31 7042ft 136kts
11-Apr-18 10:30 35.895184 -115.143520 20 7039ft 134kts
11-Apr-18 10:31 35.930835 -115.130997 11 7035ft 133kts
11-Apr-18 10:32 35.966317 -115.118935 11 7029ft 133kts
11-Apr-18 10:33 36.001969 -115.107312 12 6740ft 130kts
11-Apr-18 10:34 36.036727 -115.097352 8 5548ft 123kts
11-Apr-18 10:35 36.067573 -115.089044 2 5459ft 100kts
11-Apr-18 10:36 36.095202 -115.081774 10 5537ft 101kts
11-Apr-18 10:37 36.123792 -115.076165 335 5246ft 90kts
11-Apr-18 10:38 36.138824 -115.095348 285 4508ft 75kts
11-Apr-18 10:39 36.149461 -115.117380 281 4014ft 72kts
11-Apr-18 10:40 36.142376 -115.132616 205 3616ft 65kts
11-Apr-18 10:41 36.125905 -115.141482 206 2985ft 61kts
11-Apr-18 10:42 36.110516 -115.150235 204 2477ft 54kts
11-Apr-18 10:43 36.096552 -115.158227 207 2148ft 39kts
11-Apr-18 10:44 36.094131 -115.160712 268 2145ft 0kts
11-Apr-18 10:45 36.092535 -115.162926 204 2145ft 17kts
11-Apr-18 10:46 36.087730 -115.165662 205 2145ft 19kts
11-Apr-18 10:47 36.083791 -115.167918 203 2145ft 18kts
11-Apr-18 10:48 36.081409 -115.171385 265 2145ft 13kts
11-Apr-18 10:49 36.081102 -115.171358 96 2145ft 0kts
11-Apr-18 10:50 36.081102 -115.171359 96 2145ft 0kts
11-Apr-18 10:51 36.081102 -115.171359 96 2145ft 0kts

Navigation Log

Ident Type
Flight plan parsing failed, navigation log unavailable